Time;durP1;ratioP1;P1;durP2;ratioP2;P2;SDS_P1;SDS_P2;PMS_P1;PMS_P2;Temp;Humidity;BMP_temperature;BMP_pressure;BME280_temperature;BME280_humidity;BME280_pressure;Samples;Min_cycle;Max_cycle;Signal;HPM_P1;HPM_P2
2022/06/02 00:00:06;;;;;;;;;;;7.80;99.90;;;;;;5103522;28;19931;-71
2022/06/02 00:02:52;;;;;;;;;;;7.80;99.90;;;;;;5088065;28;19996;-72
2022/06/02 00:05:50;;;;;;;;;;;7.80;99.90;;;;;;5088227;28;19943;-71
2022/06/02 00:08:37;;;;;;;;;;;7.70;99.90;;;;;;5085261;28;19931;-71
2022/06/02 00:11:04;;;;;;;;;;;7.80;99.90;;;;;;5078179;28;20473;-71
2022/06/02 00:13:51;;;;;;;;;;;7.80;99.90;;;;;;5084405;28;19935;-72
2022/06/02 00:16:25;;;;;;;;;;;7.80;99.90;;;;;;5079290;28;19934;-72
2022/06/02 00:18:58;;;;;;;;;;;7.80;99.90;;;;;;5087608;28;19924;-72
2022/06/02 00:21:35;;;;;;;;;;;7.80;99.90;;;;;;5091574;28;19924;-72
2022/06/02 00:24:06;;;;;;;;;;;7.80;99.90;;;;;;5089383;28;20263;-71
2022/06/02 00:26:45;;;;;;;;;;;7.70;99.90;;;;;;5089530;28;19931;-71
2022/06/02 00:29:21;;;;;;;;;;;7.70;99.90;;;;;;5084573;28;19951;-73
2022/06/02 00:31:55;;;;;;;;;;;7.70;99.90;;;;;;5088332;28;20280;-73
2022/06/02 00:34:29;;;;;;;;;;;7.60;99.90;;;;;;5088026;28;20283;-73
2022/06/02 00:36:56;;;;;;;;;;;7.70;99.90;;;;;;5087465;28;20466;-72
2022/06/02 00:39:22;;;;;;;;;;;7.70;99.90;;;;;;5088128;28;19931;-72
2022/06/02 00:41:55;;;;;;;;;;;7.80;99.90;;;;;;5089456;28;19936;-73
2022/06/02 00:44:31;;;;;;;;;;;7.70;99.90;;;;;;5089250;28;20007;-72
2022/06/02 00:47:16;;;;;;;;;;;7.80;99.90;;;;;;5081075;28;20002;-72
2022/06/02 00:49:46;;;;;;;;;;;7.70;99.90;;;;;;5092726;28;20362;-72
2022/06/02 00:52:21;;;;;;;;;;;7.70;99.90;;;;;;5079979;28;19995;-73
2022/06/02 00:58:10;;;;;;;;;;;7.70;99.90;;;;;;5082061;28;19931;-73
2022/06/02 01:00:42;;;;;;;;;;;7.70;99.90;;;;;;5083740;28;19928;-72
2022/06/02 01:03:15;;;;;;;;;;;7.70;99.90;;;;;;5088807;28;19928;-72
2022/06/02 01:05:51;;;;;;;;;;;7.70;99.90;;;;;;5087638;28;19946;-71
2022/06/02 01:08:37;;;;;;;;;;;7.60;99.90;;;;;;5091816;28;19931;-72
2022/06/02 01:11:17;;;;;;;;;;;7.50;99.90;;;;;;5076252;28;20222;-72
2022/06/02 01:13:53;;;;;;;;;;;7.30;99.90;;;;;;5083281;28;19924;-72
2022/06/02 01:16:21;;;;;;;;;;;7.20;99.90;;;;;;5086513;28;20716;-72
2022/06/02 01:18:48;;;;;;;;;;;7.00;99.90;;;;;;5085322;28;20010;-72
2022/06/02 01:21:20;;;;;;;;;;;6.90;99.90;;;;;;5090897;28;19928;-72
2022/06/02 01:23:50;;;;;;;;;;;6.80;99.90;;;;;;5081203;28;20003;-72
2022/06/02 01:26:23;;;;;;;;;;;6.70;99.90;;;;;;5087763;28;20026;-73
2022/06/02 01:29:01;;;;;;;;;;;6.60;99.90;;;;;;5088235;28;19924;-72
2022/06/02 01:31:37;;;;;;;;;;;6.40;99.90;;;;;;5091658;28;20014;-73
2022/06/02 01:34:12;;;;;;;;;;;6.40;99.90;;;;;;5084379;28;19946;-73
2022/06/02 01:37:00;;;;;;;;;;;6.30;99.90;;;;;;5088918;28;19925;-74
2022/06/02 01:39:32;;;;;;;;;;;6.20;99.90;;;;;;5075810;28;19924;-73
2022/06/02 01:42:18;;;;;;;;;;;6.10;99.90;;;;;;5073238;28;20013;-74
2022/06/02 01:44:45;;;;;;;;;;;6.10;99.90;;;;;;5086161;28;19924;-73
2022/06/02 01:47:20;;;;;;;;;;;6.00;99.90;;;;;;5088898;28;20377;-72
2022/06/02 01:50:05;;;;;;;;;;;6.00;99.90;;;;;;5084440;28;20019;-72
2022/06/02 01:52:38;;;;;;;;;;;5.90;99.90;;;;;;5090061;28;19936;-73
2022/06/02 01:55:08;;;;;;;;;;;5.90;99.90;;;;;;5088141;28;19930;-72
2022/06/02 01:57:54;;;;;;;;;;;5.90;99.90;;;;;;5082708;28;19924;-73
2022/06/02 02:00:23;;;;;;;;;;;5.90;99.90;;;;;;5089043;28;19958;-73
2022/06/02 02:02:53;;;;;;;;;;;5.80;99.90;;;;;;5087975;28;20010;-74
2022/06/02 02:05:38;;;;;;;;;;;5.80;99.90;;;;;;5092377;28;19924;-73
2022/06/02 02:08:17;;;;;;;;;;;5.80;99.90;;;;;;5089813;28;20319;-73
2022/06/02 02:10:50;;;;;;;;;;;5.80;99.90;;;;;;5092044;28;19924;-73
2022/06/02 02:13:23;;;;;;;;;;;5.80;99.90;;;;;;5083695;28;19942;-73
2022/06/02 02:15:55;;;;;;;;;;;5.80;99.90;;;;;;5088529;28;20386;-73
2022/06/02 02:18:41;;;;;;;;;;;5.80;99.90;;;;;;5087321;28;19971;-73
2022/06/02 02:21:26;;;;;;;;;;;5.70;99.90;;;;;;5091825;28;20407;-73
2022/06/02 02:23:53;;;;;;;;;;;5.70;99.90;;;;;;5085076;28;19924;-73
2022/06/02 02:26:31;;;;;;;;;;;5.70;99.90;;;;;;5092440;28;19934;-73
2022/06/02 02:29:19;;;;;;;;;;;5.70;99.90;;;;;;5088087;28;19962;-73
2022/06/02 02:32:11;;;;;;;;;;;5.60;99.90;;;;;;5093354;28;19963;-73
2022/06/02 02:34:44;;;;;;;;;;;5.50;99.90;;;;;;5094493;28;19956;-72
2022/06/02 02:37:17;;;;;;;;;;;5.50;99.90;;;;;;5091043;28;19924;-73
2022/06/02 02:39:50;;;;;;;;;;;5.40;99.90;;;;;;5091087;28;19930;-73
2022/06/02 02:42:19;;;;;;;;;;;5.40;99.90;;;;;;5091614;28;20381;-72
2022/06/02 02:45:06;;;;;;;;;;;5.40;99.90;;;;;;5089476;28;20007;-73
2022/06/02 02:47:37;;;;;;;;;;;5.40;99.90;;;;;;5092773;28;19924;-73
2022/06/02 02:50:10;;;;;;;;;;;5.50;99.90;;;;;;5089267;28;19951;-73
2022/06/02 02:52:45;;;;;;;;;;;5.50;99.90;;;;;;5093034;28;20360;-72
2022/06/02 02:55:25;;;;;;;;;;;5.40;99.90;;;;;;5090246;28;19964;-73
2022/06/02 02:57:57;;;;;;;;;;;5.40;99.90;;;;;;5095865;28;20321;-73
2022/06/02 03:00:31;;;;;;;;;;;5.30;99.90;;;;;;5082604;28;19931;-73
2022/06/02 03:03:09;;;;;;;;;;;5.20;99.90;;;;;;5083856;28;19931;-73
2022/06/02 03:05:45;;;;;;;;;;;5.10;99.90;;;;;;5090711;28;19990;-72
2022/06/02 03:08:17;;;;;;;;;;;5.00;99.90;;;;;;5091065;28;19928;-73
2022/06/02 03:10:46;;;;;;;;;;;4.90;99.90;;;;;;5089570;28;20393;-72
2022/06/02 03:13:25;;;;;;;;;;;4.90;99.90;;;;;;5092088;28;19951;-72
2022/06/02 03:15:54;;;;;;;;;;;4.90;99.90;;;;;;5088464;28;20371;-72
2022/06/02 03:18:45;;;;;;;;;;;4.90;99.90;;;;;;5087048;28;20287;-72
2022/06/02 03:21:19;;;;;;;;;;;4.90;99.90;;;;;;5084373;28;19924;-72
2022/06/02 03:23:57;;;;;;;;;;;4.80;99.90;;;;;;5081830;28;19967;-73
2022/06/02 03:26:30;;;;;;;;;;;4.80;99.90;;;;;;5088695;28;19955;-72
2022/06/02 03:29:16;;;;;;;;;;;4.90;99.90;;;;;;5084294;28;20499;-71
2022/06/02 03:31:43;;;;;;;;;;;5.10;99.90;;;;;;5083667;28;20003;-70
2022/06/02 03:34:15;;;;;;;;;;;5.20;99.90;;;;;;5086722;28;20385;-73
2022/06/02 03:37:00;;;;;;;;;;;5.20;99.90;;;;;;5088802;28;19932;-72
2022/06/02 03:39:38;;;;;;;;;;;5.20;99.90;;;;;;5094463;28;20018;-72
2022/06/02 03:42:05;;;;;;;;;;;5.10;99.90;;;;;;5088675;28;19924;-72
2022/06/02 03:44:34;;;;;;;;;;;5.10;99.90;;;;;;5094402;28;20007;-72
2022/06/02 03:47:07;;;;;;;;;;;5.10;99.90;;;;;;5084693;28;19924;-72
2022/06/02 03:49:34;;;;;;;;;;;5.00;99.90;;;;;;5089017;28;20023;-71
2022/06/02 03:52:19;;;;;;;;;;;5.10;99.90;;;;;;5090627;28;19924;-72
2022/06/02 03:54:51;;;;;;;;;;;5.30;99.90;;;;;;5091039;28;19924;-72
2022/06/02 03:57:30;;;;;;;;;;;5.40;99.90;;;;;;5089557;28;19928;-73
2022/06/02 04:00:07;;;;;;;;;;;5.40;99.90;;;;;;5089934;28;19966;-73
2022/06/02 04:02:33;;;;;;;;;;;5.50;99.90;;;;;;5088738;28;20016;-72
2022/06/02 04:05:09;;;;;;;;;;;5.60;99.90;;;;;;5089564;28;19924;-71
2022/06/02 04:07:38;;;;;;;;;;;5.80;99.90;;;;;;5090348;28;20392;-73
2022/06/02 04:10:26;;;;;;;;;;;5.90;99.90;;;;;;5090303;28;19923;-73
2022/06/02 04:16:12;;;;;;;;;;;6.10;99.90;;;;;;5091727;28;19930;-73
2022/06/02 04:18:57;;;;;;;;;;;6.30;99.90;;;;;;5087756;28;19967;-73
2022/06/02 04:21:42;;;;;;;;;;;6.30;99.90;;;;;;5088987;28;19924;-74
2022/06/02 04:24:28;;;;;;;;;;;6.50;99.90;;;;;;5108881;27;20394;-73
2022/06/02 04:27:04;;;;;;;;;;;6.60;99.90;;;;;;5088271;28;19924;-74
2022/06/02 04:29:36;;;;;;;;;;;6.80;99.90;;;;;;5087142;28;20027;-73
2022/06/02 04:32:22;;;;;;;;;;;7.00;99.90;;;;;;5094447;28;19924;-72
2022/06/02 04:34:49;;;;;;;;;;;7.10;99.90;;;;;;5084882;28;19932;-73
2022/06/02 04:37:18;;;;;;;;;;;7.30;99.90;;;;;;5086162;28;20564;-73
2022/06/02 04:40:03;;;;;;;;;;;7.90;99.90;;;;;;5083679;28;19971;-73
2022/06/02 04:42:29;;;;;;;;;;;9.70;99.90;;;;;;5087819;28;19946;-72
2022/06/02 04:44:59;;;;;;;;;;;11.80;99.90;;;;;;5087232;28;19928;-72
2022/06/02 04:47:35;;;;;;;;;;;13.70;99.90;;;;;;5083886;28;20010;-71
2022/06/02 04:50:20;;;;;;;;;;;15.50;99.90;;;;;;5087969;28;19928;-71
2022/06/02 04:52:50;;;;;;;;;;;17.10;99.90;;;;;;5086415;28;20022;-70
2022/06/02 04:55:25;;;;;;;;;;;18.40;99.90;;;;;;5086124;28;19963;-71
2022/06/02 04:57:53;;;;;;;;;;;;;;;;;;5091539;28;20414;-70
2022/06/02 05:00:38;;;;;;;;;;;20.20;99.90;;;;;;5087014;28;20346;-70
2022/06/02 05:03:24;;;;;;;;;;;20.70;99.90;;;;;;5085922;28;20501;-71
2022/06/02 05:06:00;;;;;;;;;;;21.10;99.90;;;;;;5085521;28;19924;-71
2022/06/02 05:08:37;;;;;;;;;;;21.70;99.90;;;;;;5080025;28;20406;-72
2022/06/02 05:11:07;;;;;;;;;;;22.20;99.90;;;;;;5086274;28;19983;-70
2022/06/02 05:13:48;;;;;;;;;;;22.90;99.90;;;;;;5087220;28;19924;-69
2022/06/02 05:16:15;;;;;;;;;;;23.40;99.90;;;;;;5089181;28;19924;-69
2022/06/02 05:18:42;;;;;;;;;;;23.90;99.90;;;;;;5079409;28;19943;-69
2022/06/02 05:21:47;;;;;;;;;;;24.20;99.50;;;;;;5082740;28;19928;-69
2022/06/02 05:24:32;;;;;;;;;;;24.40;98.60;;;;;;5067353;28;19999;-69
2022/06/02 05:27:00;;;;;;;;;;;24.60;97.80;;;;;;5065042;28;20027;-70
2022/06/02 05:29:47;;;;;;;;;;;24.80;97.20;;;;;;5065762;28;20602;-64
2022/06/02 05:32:16;;;;;;;;;;;24.80;96.40;;;;;;5063807;28;19925;-64
2022/06/02 05:34:52;;;;;;;;;;;24.90;96.30;;;;;;5063891;28;19933;-65
2022/06/02 05:37:31;;;;;;;;;;;24.90;96.00;;;;;;5068350;28;19931;-64
2022/06/02 05:40:08;;;;;;;;;;;24.80;96.30;;;;;;5056655;28;20007;-64
2022/06/02 05:42:43;;;;;;;;;;;24.40;96.30;;;;;;5064815;28;19946;-65
2022/06/02 05:45:15;;;;;;;;;;;24.40;96.40;;;;;;5058744;28;19933;-65
2022/06/02 05:47:52;;;;;;;;;;;24.30;96.50;;;;;;5060063;28;20009;-64
2022/06/02 05:50:29;;;;;;;;;;;24.70;95.70;;;;;;5064890;28;19924;-65
2022/06/02 05:53:01;;;;;;;;;;;24.60;95.80;;;;;;5062173;28;19924;-65
2022/06/02 05:55:38;;;;;;;;;;;24.40;95.20;;;;;;5075146;28;19935;-66
2022/06/02 05:58:10;;;;;;;;;;;23.90;95.80;;;;;;5089625;28;19924;-64
2022/06/02 06:00:37;;;;;;;;;;;24.30;95.70;;;;;;5088177;28;19936;-64
2022/06/02 06:03:22;;;;;;;;;;;24.20;95.10;;;;;;5087766;28;19928;-65
2022/06/02 06:05:52;;;;;;;;;;;24.10;95.10;;;;;;5086582;28;20023;-66
2022/06/02 06:08:25;;;;;;;;;;;24.10;94.90;;;;;;5087739;28;19932;-64
2022/06/02 06:11:30;;;;;;;;;;;24.20;94.90;;;;;;5086317;28;19931;-64
2022/06/02 06:13:58;;;;;;;;;;;24.60;95.10;;;;;;5003548;28;19933;-65
2022/06/02 06:16:24;;;;;;;;;;;24.90;94.40;;;;;;4982789;28;20442;-66
2022/06/02 06:19:13;;;;;;;;;;;25.00;94.30;;;;;;5002433;28;20250;-66
2022/06/02 06:21:45;;;;;;;;;;;25.40;94.40;;;;;;5008570;28;19983;-64
2022/06/02 06:24:31;;;;;;;;;;;26.10;94.50;;;;;;5016263;28;19925;-65
2022/06/02 06:27:09;;;;;;;;;;;26.30;93.70;;;;;;5004821;28;19929;-65
2022/06/02 06:29:43;;;;;;;;;;;26.50;93.40;;;;;;5008297;28;20403;-65
2022/06/02 06:32:15;;;;;;;;;;;26.60;93.00;;;;;;4995270;28;19965;-64
2022/06/02 06:34:51;;;;;;;;;;;26.50;93.60;;;;;;5007279;28;19932;-65
2022/06/02 06:37:20;;;;;;;;;;;26.80;92.80;;;;;;5003272;28;20516;-66
2022/06/02 06:40:05;;;;;;;;;;;27.20;92.70;;;;;;5003338;28;19979;-66
2022/06/02 06:42:53;;;;;;;;;;;27.40;91.90;;;;;;5003059;28;20028;-64
2022/06/02 06:45:26;;;;;;;;;;;26.50;91.60;;;;;;5060815;28;19924;-63
2022/06/02 06:47:55;;;;;;;;;;;25.90;91.90;;;;;;5083294;28;20277;-66
2022/06/02 06:50:25;;;;;;;;;;;25.90;92.30;;;;;;5087689;28;19924;-64
2022/06/02 06:53:11;;;;;;;;;;;25.80;92.60;;;;;;5086103;28;19924;-65
2022/06/02 06:55:42;;;;;;;;;;;25.60;92.50;;;;;;5084078;28;19932;-65
2022/06/02 06:58:33;;;;;;;;;;;24.90;92.60;;;;;;5090963;28;20387;-66
2022/06/02 07:01:01;;;;;;;;;;;24.70;92.60;;;;;;5098705;28;20011;-66
2022/06/02 07:03:59;;;;;;;;;;;24.20;93.20;;;;;;5079441;28;20302;-65
2022/06/02 07:06:27;;;;;;;;;;;24.20;93.50;;;;;;5061738;28;20491;-65
2022/06/02 07:09:00;;;;;;;;;;;24.30;93.40;;;;;;5058159;28;19932;-64
2022/06/02 07:14:26;;;;;;;;;;;24.00;95.00;;;;;;5059472;28;20286;-66
2022/06/02 07:16:55;;;;;;;;;;;24.30;93.90;;;;;;5060844;28;20611;-65
2022/06/02 07:19:22;;;;;;;;;;;24.70;93.80;;;;;;5062024;28;20283;-65
2022/06/02 07:21:55;;;;;;;;;;;25.00;93.20;;;;;;5061683;28;19928;-64
2022/06/02 07:24:43;;;;;;;;;;;25.30;93.30;;;;;;5045906;28;19929;-66
2022/06/02 07:27:21;;;;;;;;;;;25.30;92.80;;;;;;5063854;28;20320;-64
2022/06/02 07:30:09;;;;;;;;;;;25.50;93.10;;;;;;5059943;28;20022;-65
2022/06/02 07:32:46;;;;;;;;;;;25.50;92.50;;;;;;5052934;28;20439;-64
2022/06/02 07:35:13;;;;;;;;;;;24.80;92.20;;;;;;5071200;28;19932;-64
2022/06/02 07:37:50;;;;;;;;;;;24.70;92.90;;;;;;5065140;28;19924;-64
2022/06/02 07:40:17;;;;;;;;;;;24.30;93.10;;;;;;5066466;28;20470;-64
2022/06/02 07:43:02;;;;;;;;;;;24.40;93.10;;;;;;5068160;28;19924;-64
2022/06/02 07:45:36;;;;;;;;;;;24.50;93.00;;;;;;5087852;28;19924;-66
2022/06/02 07:48:15;;;;;;;;;;;24.80;93.00;;;;;;5083715;28;20434;-65
2022/06/02 07:50:46;;;;;;;;;;;24.80;92.90;;;;;;5084236;28;20014;-65
2022/06/02 07:53:15;;;;;;;;;;;24.90;92.70;;;;;;5090487;28;19943;-64
2022/06/02 07:56:05;;;;;;;;;;;24.60;92.50;;;;;;5087165;28;20018;-64
2022/06/02 07:58:32;;;;;;;;;;;24.40;93.40;;;;;;5078390;28;19924;-68
2022/06/02 08:01:17;;;;;;;;;;;25.30;93.30;;;;;;5088603;28;19973;-66
2022/06/02 08:03:45;;;;;;;;;;;25.90;91.70;;;;;;5085548;28;19964;-66
2022/06/02 08:06:16;;;;;;;;;;;26.00;91.00;;;;;;5085887;28;19927;-67
2022/06/02 08:09:20;;;;;;;;;;;25.90;91.50;;;;;;5083515;28;19924;-65
2022/06/02 08:11:55;;;;;;;;;;;25.50;92.20;;;;;;5087759;28;19962;-66
2022/06/02 08:14:45;;;;;;;;;;;25.80;91.50;;;;;;5079783;28;19925;-66
2022/06/02 08:17:30;;;;;;;;;;;26.10;91.20;;;;;;5085516;28;19931;-64
2022/06/02 08:20:09;;;;;;;;;;;25.60;91.00;;;;;;5077569;28;19925;-67
2022/06/02 08:22:41;;;;;;;;;;;25.40;91.20;;;;;;5084653;28;20385;-65
2022/06/02 08:25:14;;;;;;;;;;;25.30;91.20;;;;;;5090112;28;20434;-66
2022/06/02 08:27:52;;;;;;;;;;;25.10;91.10;;;;;;5089853;28;20591;-70
2022/06/02 08:30:19;;;;;;;;;;;24.70;91.00;;;;;;5081065;28;19928;-67
2022/06/02 08:33:04;;;;;;;;;;;24.40;91.60;;;;;;5088410;28;19928;-65
2022/06/02 08:35:41;;;;;;;;;;;23.70;91.70;;;;;;5082930;28;19985;-64
2022/06/02 08:38:16;;;;;;;;;;;23.60;92.20;;;;;;5083431;28;19931;-64
2022/06/02 08:41:28;;;;;;;;;;;23.70;91.60;;;;;;5089972;28;19931;-65
2022/06/02 08:44:08;;;;;;;;;;;24.40;91.90;;;;;;5083834;28;20012;-66
2022/06/02 08:46:50;;;;;;;;;;;24.50;90.20;;;;;;5082334;28;19935;-66
2022/06/02 08:49:53;;;;;;;;;;;23.70;90.30;;;;;;5086993;28;20371;-67
2022/06/02 08:52:41;;;;;;;;;;;23.50;91.50;;;;;;5021337;28;20048;-68
2022/06/02 08:55:26;;;;;;;;;;;23.50;91.30;;;;;;5079352;28;20386;-63
2022/06/02 08:58:19;;;;;;;;;;;24.00;90.90;;;;;;5089583;28;20398;-65
2022/06/02 09:01:01;;;;;;;;;;;24.80;90.60;;;;;;5085583;28;20534;-66
2022/06/02 09:03:41;;;;;;;;;;;25.50;90.30;;;;;;5085730;28;19924;-65
2022/06/02 09:06:23;;;;;;;;;;;25.40;90.50;;;;;;5076948;28;20357;-64
2022/06/02 09:09:01;;;;;;;;;;;26.00;90.70;;;;;;5078075;28;19946;-65
2022/06/02 09:11:40;;;;;;;;;;;26.20;89.40;;;;;;5083219;28;19986;-68
2022/06/02 09:14:26;;;;;;;;;;;25.40;90.10;;;;;;5086909;28;19931;-68
2022/06/02 09:16:58;;;;;;;;;;;25.20;90.30;;;;;;5087856;28;20374;-67
2022/06/02 09:19:25;;;;;;;;;;;24.20;90.70;;;;;;5086656;28;19928;-65
2022/06/02 09:22:12;;;;;;;;;;;24.10;90.80;;;;;;5087981;28;19924;-65
2022/06/02 09:24:58;;;;;;;;;;;24.20;91.60;;;;;;5081805;28;19971;-65
2022/06/02 09:27:43;;;;;;;;;;;24.40;90.30;;;;;;5085313;28;19924;-65
2022/06/02 09:30:23;;;;;;;;;;;24.30;89.90;;;;;;5083425;28;19938;-64
2022/06/02 09:33:35;;;;;;;;;;;24.60;89.50;;;;;;5078720;28;19924;-64
2022/06/02 09:36:10;;;;;;;;;;;24.30;89.80;;;;;;5082578;28;20422;-65
2022/06/02 09:38:55;;;;;;;;;;;24.50;90.10;;;;;;5081726;28;19983;-66
2022/06/02 09:41:41;;;;;;;;;;;24.40;90.70;;;;;;5080068;28;19928;-65
2022/06/02 09:44:16;;;;;;;;;;;24.70;90.70;;;;;;5079732;28;19959;-66
2022/06/02 09:46:55;;;;;;;;;;;25.00;90.40;;;;;;5081479;28;19927;-67
2022/06/02 09:49:48;;;;;;;;;;;26.10;89.40;;;;;;5080526;28;19978;-65
2022/06/02 09:52:37;;;;;;;;;;;26.50;88.80;;;;;;5041192;28;19932;-66
2022/06/02 09:55:18;;;;;;;;;;;26.40;87.90;;;;;;5048126;28;19940;-64
2022/06/02 09:57:57;;;;;;;;;;;26.20;89.50;;;;;;5040189;28;19925;-67
2022/06/02 10:00:27;;;;;;;;;;;26.80;88.10;;;;;;5042287;28;20318;-64
2022/06/02 10:02:57;;;;;;;;;;;26.70;87.50;;;;;;5042862;28;19935;-66
2022/06/02 10:05:33;;;;;;;;;;;26.80;86.50;;;;;;5040417;28;20020;-66
2022/06/02 10:08:04;;;;;;;;;;;26.50;86.20;;;;;;5025007;28;19982;-65
2022/06/02 10:10:40;;;;;;;;;;;26.40;86.30;;;;;;5039835;28;19932;-66
2022/06/02 10:13:29;;;;;;;;;;;25.80;85.40;;;;;;5042917;28;20004;-64
2022/06/02 10:16:14;;;;;;;;;;;25.70;85.40;;;;;;5028599;28;19925;-66
2022/06/02 10:18:41;;;;;;;;;;;26.10;85.50;;;;;;5047547;28;20467;-65
2022/06/02 10:21:26;;;;;;;;;;;26.70;84.30;;;;;;5037788;28;19931;-68
2022/06/02 10:23:53;;;;;;;;;;;26.60;85.90;;;;;;5035688;28;20300;-66
2022/06/02 10:26:35;;;;;;;;;;;26.60;87.30;;;;;;5043431;28;19932;-66
2022/06/02 10:29:11;;;;;;;;;;;27.00;85.60;;;;;;5069400;28;19924;-63
2022/06/02 10:31:41;;;;;;;;;;;26.90;86.10;;;;;;5091427;28;19967;-65
2022/06/02 10:34:30;;;;;;;;;;;26.20;85.80;;;;;;5087989;28;19924;-70
2022/06/02 10:37:14;;;;;;;;;;;25.90;87.20;;;;;;5083364;28;19924;-68
2022/06/02 10:39:53;;;;;;;;;;;25.60;87.30;;;;;;5091171;28;19938;-69
2022/06/02 10:42:39;;;;;;;;;;;25.00;87.50;;;;;;5090754;28;19930;-69
2022/06/02 10:45:09;;;;;;;;;;;24.90;89.60;;;;;;5088282;28;20481;-68
2022/06/02 10:47:47;;;;;;;;;;;24.80;88.70;;;;;;5084984;28;20367;-64
2022/06/02 10:50:22;;;;;;;;;;;24.80;88.90;;;;;;5083052;28;20027;-64
2022/06/02 10:53:11;;;;;;;;;;;24.30;89.20;;;;;;5084607;28;19925;-65
2022/06/02 10:55:56;;;;;;;;;;;24.00;89.10;;;;;;5041036;28;19924;-67
2022/06/02 10:58:41;;;;;;;;;;;24.20;89.70;;;;;;5083933;28;19946;-65
2022/06/02 11:01:27;;;;;;;;;;;24.80;89.50;;;;;;5087901;28;19932;-69
2022/06/02 11:04:13;;;;;;;;;;;25.40;88.90;;;;;;5085387;28;20420;-65
2022/06/02 11:06:42;;;;;;;;;;;25.80;87.20;;;;;;5084189;28;19925;-63
2022/06/02 11:09:37;;;;;;;;;;;25.50;86.90;;;;;;5082814;28;19999;-67
2022/06/02 11:12:13;;;;;;;;;;;25.50;86.50;;;;;;5085104;28;19924;-69
2022/06/02 11:14:42;;;;;;;;;;;25.40;86.80;;;;;;5088559;28;20007;-69
2022/06/02 11:17:28;;;;;;;;;;;25.30;86.40;;;;;;5090416;28;19924;-68
2022/06/02 11:19:54;;;;;;;;;;;26.10;85.80;;;;;;5098239;28;19928;-67
2022/06/02 11:22:40;;;;;;;;;;;26.80;86.40;;;;;;5097092;28;19936;-66
2022/06/02 11:25:30;;;;;;;;;;;26.60;83.70;;;;;;5094095;28;19928;-65
2022/06/02 11:28:23;;;;;;;;;;;26.20;83.90;;;;;;5091735;28;19935;-67
2022/06/02 11:31:05;;;;;;;;;;;25.90;83.70;;;;;;5082654;28;20382;-65
2022/06/02 11:33:49;;;;;;;;;;;25.00;83.00;;;;;;5094187;28;20012;-67
2022/06/02 11:36:25;;;;;;;;;;;24.40;84.80;;;;;;5090194;28;19924;-65
2022/06/02 11:39:05;;;;;;;;;;;24.50;84.90;;;;;;5090073;28;19935;-67
2022/06/02 11:41:47;;;;;;;;;;;24.90;85.80;;;;;;5091762;28;19935;-68
2022/06/02 11:44:43;;;;;;;;;;;25.60;86.40;;;;;;5092276;28;20026;-68
2022/06/02 11:47:16;;;;;;;;;;;26.60;85.00;;;;;;5074131;28;19924;-67
2022/06/02 11:49:59;;;;;;;;;;;26.60;84.10;;;;;;5088541;28;19950;-69
2022/06/02 11:52:28;;;;;;;;;;;26.80;85.30;;;;;;5085410;28;20433;-65
2022/06/02 11:55:09;;;;;;;;;;;26.50;83.60;;;;;;5087919;28;20466;-66
2022/06/02 11:57:36;;;;;;;;;;;25.50;84.00;;;;;;5098038;28;19924;-67
2022/06/02 12:00:17;;;;;;;;;;;24.40;84.90;;;;;;5099421;28;19924;-68
2022/06/02 12:02:55;;;;;;;;;;;24.30;85.90;;;;;;5097434;28;19983;-66
2022/06/02 12:05:41;;;;;;;;;;;24.10;84.50;;;;;;5094825;28;19924;-66
2022/06/02 12:08:36;;;;;;;;;;;24.10;84.90;;;;;;5091940;28;20451;-70
2022/06/02 12:11:12;;;;;;;;;;;24.30;83.20;;;;;;5085179;28;19928;-68
2022/06/02 12:13:59;;;;;;;;;;;25.00;83.10;;;;;;5087591;28;20006;-65
2022/06/02 12:16:31;;;;;;;;;;;25.70;84.10;;;;;;5078985;28;19969;-67
2022/06/02 12:19:11;;;;;;;;;;;25.60;83.20;;;;;;5096304;28;20440;-66
2022/06/02 12:21:52;;;;;;;;;;;25.30;81.70;;;;;;5101974;28;19924;-67
2022/06/02 12:24:21;;;;;;;;;;;25.20;83.10;;;;;;5090939;28;19932;-66
2022/06/02 12:27:09;;;;;;;;;;;25.60;82.20;;;;;;5087200;28;19938;-66
2022/06/02 12:29:42;;;;;;;;;;;25.40;82.20;;;;;;5088521;28;19971;-65
2022/06/02 12:32:34;;;;;;;;;;;25.40;82.30;;;;;;5088487;28;19924;-66
2022/06/02 12:35:00;;;;;;;;;;;25.10;83.00;;;;;;5088228;28;20323;-67
2022/06/02 12:37:39;;;;;;;;;;;24.60;82.50;;;;;;5092318;28;19924;-67
2022/06/02 12:40:28;;;;;;;;;;;24.60;83.70;;;;;;5081820;28;19934;-72
2022/06/02 12:43:18;;;;;;;;;;;24.50;83.60;;;;;;5109844;27;20031;-70
2022/06/02 12:46:02;;;;;;;;;;;24.80;82.10;;;;;;5088646;28;19972;-65
2022/06/02 12:48:47;;;;;;;;;;;24.90;82.80;;;;;;5087921;28;19935;-68
2022/06/02 12:51:14;;;;;;;;;;;25.30;82.40;;;;;;5083850;28;19942;-68
2022/06/02 12:53:50;;;;;;;;;;;25.60;83.00;;;;;;5086623;28;19947;-70
2022/06/02 12:56:35;;;;;;;;;;;25.80;81.10;;;;;;5089558;28;19934;-67
2022/06/02 12:59:02;;;;;;;;;;;26.30;81.60;;;;;;5085009;28;20864;-66
2022/06/02 13:01:44;;;;;;;;;;;26.10;80.60;;;;;;5091431;28;19928;-65
2022/06/02 13:04:11;;;;;;;;;;;25.80;81.50;;;;;;5087246;28;19932;-69
2022/06/02 13:06:56;;;;;;;;;;;25.70;81.80;;;;;;5090481;28;19924;-70
2022/06/02 13:09:43;;;;;;;;;;;25.80;80.30;;;;;;5078661;28;19950;-67
2022/06/02 13:12:28;;;;;;;;;;;25.70;79.20;;;;;;5087280;28;20047;-65
2022/06/02 13:15:16;;;;;;;;;;;25.40;80.20;;;;;;5084371;28;19954;-66
2022/06/02 13:17:47;;;;;;;;;;;25.50;79.90;;;;;;5091604;28;19996;-66
2022/06/02 13:20:19;;;;;;;;;;;25.40;79.90;;;;;;5087430;28;20298;-67
2022/06/02 13:23:10;;;;;;;;;;;25.30;80.00;;;;;;5082990;28;19978;-67
2022/06/02 13:26:01;;;;;;;;;;;25.50;79.00;;;;;;5090934;28;19934;-66
2022/06/02 13:28:42;;;;;;;;;;;25.30;79.00;;;;;;5083097;28;20256;-66
2022/06/02 13:31:24;;;;;;;;;;;25.30;80.40;;;;;;5086767;28;20023;-65
2022/06/02 13:34:10;;;;;;;;;;;25.40;81.10;;;;;;5088253;28;19924;-68
2022/06/02 13:36:46;;;;;;;;;;;25.70;81.40;;;;;;5094297;28;20386;-67
2022/06/02 13:39:18;;;;;;;;;;;26.20;79.60;;;;;;5094396;28;19970;-66
2022/06/02 13:41:57;;;;;;;;;;;26.50;80.70;;;;;;5094451;28;20286;-65
2022/06/02 13:44:27;;;;;;;;;;;26.60;79.90;;;;;;5088010;28;19924;-68
2022/06/02 13:47:12;;;;;;;;;;;26.50;80.10;;;;;;5082609;28;19955;-65
2022/06/02 13:50:02;;;;;;;;;;;26.50;78.80;;;;;;5090976;28;20367;-65
2022/06/02 13:52:29;;;;;;;;;;;26.80;78.30;;;;;;5076370;28;19977;-69
2022/06/02 13:58:13;;;;;;;;;;;27.70;78.00;;;;;;5076076;28;19932;-68
2022/06/02 14:00:40;;;;;;;;;;;28.50;77.50;;;;;;5082816;28;20669;-67
2022/06/02 14:03:16;;;;;;;;;;;28.80;78.20;;;;;;5091150;28;19924;-65
2022/06/02 14:06:05;;;;;;;;;;;29.30;76.40;;;;;;5102189;28;20231;-66
2022/06/02 14:08:40;;;;;;;;;;;29.10;75.40;;;;;;5095321;28;20370;-66
2022/06/02 14:11:21;;;;;;;;;;;28.00;73.70;;;;;;5100314;28;19936;-69
2022/06/02 14:13:54;;;;;;;;;;;27.70;75.50;;;;;;5123196;27;20430;-65
2022/06/02 14:16:33;;;;;;;;;;;27.10;73.80;;;;;;5084313;28;20419;-64
2022/06/02 14:19:18;;;;;;;;;;;26.80;75.90;;;;;;5089791;28;20019;-67
2022/06/02 14:21:48;;;;;;;;;;;27.30;76.00;;;;;;5090848;28;19967;-66
2022/06/02 14:24:20;;;;;;;;;;;28.00;75.20;;;;;;5088834;28;19924;-65
2022/06/02 14:27:05;;;;;;;;;;;28.70;73.50;;;;;;5090173;28;19924;-66
2022/06/02 14:29:40;;;;;;;;;;;29.00;73.20;;;;;;5089549;28;19937;-67
2022/06/02 14:32:23;;;;;;;;;;;28.60;72.20;;;;;;5095676;28;19924;-66
2022/06/02 14:34:54;;;;;;;;;;;28.90;73.10;;;;;;5087258;28;19924;-65
2022/06/02 14:37:24;;;;;;;;;;;28.70;72.20;;;;;;5089415;28;19924;-66
2022/06/02 14:40:00;;;;;;;;;;;28.30;73.60;;;;;;5095433;28;19924;-68
2022/06/02 14:45:36;;;;;;;;;;;29.00;73.70;;;;;;5090271;28;19943;-67
2022/06/02 14:48:23;;;;;;;;;;;30.70;72.30;;;;;;5061214;28;19947;-68
2022/06/02 14:51:08;;;;;;;;;;;31.60;70.80;;;;;;5051329;28;19924;-66
2022/06/02 14:53:41;;;;;;;;;;;31.80;71.30;;;;;;5096659;28;19956;-69
2022/06/02 14:56:32;;;;;;;;;;;31.90;70.70;;;;;;5086030;28;19924;-65
2022/06/02 14:59:08;;;;;;;;;;;32.10;70.20;;;;;;5087576;28;19928;-67
2022/06/02 15:01:38;;;;;;;;;;;31.50;68.50;;;;;;5097980;28;19928;-64
2022/06/02 15:04:18;;;;;;;;;;;31.00;69.30;;;;;;5098843;28;19932;-64
2022/06/02 15:07:03;;;;;;;;;;;30.60;70.00;;;;;;5093857;28;19928;-64
2022/06/02 15:09:32;;;;;;;;;;;29.90;70.00;;;;;;5088060;28;19930;-65
2022/06/02 15:12:11;;;;;;;;;;;30.30;69.60;;;;;;5102633;28;19930;-67
2022/06/02 15:14:57;;;;;;;;;;;31.10;69.90;;;;;;5088627;28;19930;-64
2022/06/02 15:17:42;;;;;;;;;;;31.40;69.00;;;;;;5093151;28;20003;-65
2022/06/02 15:20:18;;;;;;;;;;;30.60;68.30;;;;;;5093426;28;20012;-62
2022/06/02 15:23:13;;;;;;;;;;;30.10;69.00;;;;;;5085944;28;19928;-64
2022/06/02 15:25:48;;;;;;;;;;;28.90;68.00;;;;;;5104997;28;20472;-64
2022/06/02 15:28:33;;;;;;;;;;;28.80;68.20;;;;;;5087589;28;19947;-67
2022/06/02 15:31:14;;;;;;;;;;;29.30;68.50;;;;;;5108296;27;19924;-66
2022/06/02 15:33:52;;;;;;;;;;;29.40;67.60;;;;;;5092123;28;19932;-64
2022/06/02 15:36:31;;;;;;;;;;;29.90;66.90;;;;;;5096749;28;19990;-63
2022/06/02 15:39:17;;;;;;;;;;;30.20;67.90;;;;;;5095937;28;20472;-63